createdAt,value
2022-10-07T00:00:14.131Z,101616.59
2022-10-07T00:05:16.663Z,101617.41
2022-10-07T00:10:17.580Z,101613.06
2022-10-07T00:15:18.712Z,101604.41
2022-10-07T00:20:20.928Z,101601.75
2022-10-07T00:25:22.408Z,101592.31
2022-10-07T00:30:23.299Z,101587.16
2022-10-07T00:35:25.478Z,101586.22
2022-10-07T00:40:26.335Z,101585.41
2022-10-07T00:45:27.152Z,101583.69
2022-10-07T00:50:30.465Z,101580.13
2022-10-07T00:55:33.495Z,101573.09
2022-10-07T01:00:34.398Z,101565.31
2022-10-07T01:05:36.571Z,101560.84
2022-10-07T01:10:46.434Z,101556.47
2022-10-07T01:15:57.443Z,101551.97
2022-10-07T01:21:05.213Z,101556.28
2022-10-07T01:26:37.850Z,101547.69
2022-10-07T01:31:45.077Z,101543.91
2022-10-07T01:36:51.890Z,101527.72
2022-10-07T01:41:54.512Z,101520.94
2022-10-07T01:46:55.415Z,101514.91
2022-10-07T01:52:12.263Z,101504.66
2022-10-07T01:57:26.829Z,101503.72
2022-10-07T02:02:40.869Z,101494.31
2022-10-07T02:07:53.636Z,101485.72
2022-10-07T02:13:00.925Z,101483.00
2022-10-07T02:18:09.380Z,101477.00
2022-10-07T02:23:13.379Z,101473.47
2022-10-07T02:28:18.490Z,101466.69
2022-10-07T02:33:21.506Z,101460.72
2022-10-07T02:38:23.644Z,101463.13
2022-10-07T02:43:31.073Z,101456.94
2022-10-07T02:48:36.307Z,101448.34
2022-10-07T02:53:41.685Z,101454.28
2022-10-07T02:58:46.459Z,101450.66
2022-10-07T03:03:49.643Z,101448.03
2022-10-07T03:08:51.838Z,101440.28
2022-10-07T03:13:54.260Z,101445.44
2022-10-07T03:18:55.427Z,101437.97
2022-10-07T03:24:05.655Z,101432.78
2022-10-07T03:29:15.060Z,101431.75
2022-10-07T03:34:16.421Z,101425.66
2022-10-07T03:39:21.109Z,101425.66
2022-10-07T03:44:23.704Z,101409.47
2022-10-07T03:49:25.994Z,101406.06
2022-10-07T03:54:27.216Z,101399.31
2022-10-07T03:59:30.225Z,101400.13
2022-10-07T04:04:31.087Z,101396.81
2022-10-07T04:09:32.394Z,101382.28
2022-10-07T04:14:35.830Z,101385.59
2022-10-07T04:19:37.191Z,101387.22
2022-10-07T04:24:38.379Z,101374.28
2022-10-07T04:29:40.589Z,101367.38
2022-10-07T04:34:41.773Z,101369.97
2022-10-07T04:39:59.687Z,101365.91
2022-10-07T04:45:03.889Z,101365.25
2022-10-07T04:50:07.935Z,101354.75
2022-10-07T04:55:09.689Z,101357.13
2022-10-07T05:00:13.285Z,101353.56
2022-10-07T05:05:14.886Z,101353.47
2022-10-07T05:10:15.933Z,101365.19
2022-10-07T05:15:18.177Z,101345.03
2022-10-07T05:20:19.197Z,101341.56
2022-10-07T05:25:21.708Z,101340.53
2022-10-07T05:30:23.953Z,101333.94
2022-10-07T05:35:24.925Z,101321.19
2022-10-07T05:40:25.789Z,101324.91
2022-10-07T05:45:28.201Z,101324.84
2022-10-07T05:50:29.458Z,101315.59
2022-10-07T05:55:30.381Z,101317.56
2022-10-07T06:00:35.313Z,101321.94
2022-10-07T06:05:36.614Z,101313.63
2022-10-07T06:10:54.957Z,101308.03
2022-10-07T06:16:01.910Z,101307.34
2022-10-07T06:21:03.606Z,101302.56
2022-10-07T06:26:07.274Z,101313.19
2022-10-07T06:31:12.059Z,101304.09
2022-10-07T06:36:14.914Z,101298.59
2022-10-07T06:41:18.787Z,101287.72
2022-10-07T06:46:23.858Z,101295.75
2022-10-07T06:51:25.904Z,101292.81
2022-10-07T06:56:29.578Z,101284.69
2022-10-07T07:01:33.157Z,101291.75
2022-10-07T07:06:36.857Z,101281.88
2022-10-07T07:11:41.718Z,101284.75
2022-10-07T07:16:49.844Z,101280.81
2022-10-07T07:21:51.771Z,101267.59
2022-10-07T07:26:55.574Z,101271.38
2022-10-07T07:32:00.911Z,101261.41
2022-10-07T07:37:04.087Z,101255.00
2022-10-07T07:42:11.733Z,101251.84
2022-10-07T07:47:16.359Z,101247.06
2022-10-07T07:52:17.934Z,101246.47
2022-10-07T07:57:21.404Z,101247.56
2022-10-07T08:02:23.990Z,101228.91
2022-10-07T08:07:26.893Z,101221.34
2022-10-07T08:12:27.904Z,101218.00
2022-10-07T08:17:30.953Z,101218.06
2022-10-07T08:22:31.828Z,101215.50
2022-10-07T08:27:33.600Z,101211.22
2022-10-07T08:32:35.936Z,101200.91
2022-10-07T08:37:36.744Z,101201.72
2022-10-07T08:42:40.656Z,101193.97
2022-10-07T08:47:45.510Z,101193.06
2022-10-07T08:52:52.305Z,101191.28
2022-10-07T08:58:16.221Z,101172.28
2022-10-07T09:03:32.076Z,101176.47
2022-10-07T09:08:38.544Z,101178.94
2022-10-07T09:13:42.889Z,101165.06
2022-10-07T09:18:53.918Z,101164.94
2022-10-07T09:23:57.933Z,101160.59
2022-10-07T09:28:59.953Z,101159.59
2022-10-07T09:34:02.653Z,101152.44
2022-10-07T09:39:17.582Z,101138.53
2022-10-07T09:44:27.608Z,101129.75
2022-10-07T09:49:38.252Z,101119.28
2022-10-07T09:54:39.095Z,101124.25
2022-10-07T09:59:40.256Z,101120.59
2022-10-07T10:04:50.344Z,101116.81
2022-10-07T10:09:54.071Z,101103.75
2022-10-07T10:14:58.997Z,101097.38
2022-10-07T10:20:29.086Z,101092.91
2022-10-07T10:25:58.474Z,101077.19
2022-10-07T10:31:08.706Z,101062.91
2022-10-07T10:36:17.272Z,101058.28
2022-10-07T10:41:30.387Z,101050.97
2022-10-07T10:46:47.372Z,101035.88
2022-10-07T10:52:13.586Z,101026.00
2022-10-07T10:57:21.063Z,101010.22
2022-10-07T11:02:40.621Z,101012.84
2022-10-07T11:07:47.846Z,100997.84
2022-10-07T11:12:54.662Z,100995.53
2022-10-07T11:18:01.567Z,100978.59
2022-10-07T11:23:10.824Z,100973.84
2022-10-07T11:28:18.233Z,100969.16
2022-10-07T11:33:24.011Z,100956.75
2022-10-07T11:38:33.381Z,100953.09
2022-10-07T11:43:41.335Z,100938.47
2022-10-07T11:48:46.074Z,100936.50
2022-10-07T11:53:48.593Z,100929.25
2022-10-07T11:58:59.287Z,100914.78
2022-10-07T12:04:25.493Z,100906.16
2022-10-07T12:09:55.217Z,100890.84
2022-10-07T12:15:00.908Z,100884.59
2022-10-07T12:20:37.757Z,100879.72
2022-10-07T12:25:44.903Z,100864.66
2022-10-07T12:30:52.559Z,100856.69
2022-10-07T12:35:54.753Z,100857.09
2022-10-07T12:41:23.141Z,100854.31
2022-10-07T12:46:26.950Z,100852.41
2022-10-07T12:51:31.560Z,100837.69
2022-10-07T12:56:33.871Z,100840.16
2022-10-07T13:01:50.179Z,100837.13
2022-10-07T13:07:21.279Z,100824.69
2022-10-07T13:12:38.679Z,100815.28
2022-10-07T13:17:48.275Z,100811.69
2022-10-07T13:22:50.663Z,100800.50
2022-10-07T13:27:55.817Z,100802.28
2022-10-07T13:32:56.615Z,100792.78
2022-10-07T13:37:57.658Z,100788.13
2022-10-07T13:43:02.057Z,100782.97
2022-10-07T13:48:02.936Z,100768.06
2022-10-07T13:53:03.725Z,100771.22
2022-10-07T13:58:07.273Z,100763.84
2022-10-07T14:03:14.770Z,100753.66
2022-10-07T14:08:21.333Z,100745.50
2022-10-07T14:13:23.895Z,100733.88
2022-10-07T14:18:27.638Z,100726.78
2022-10-07T14:23:32.788Z,100713.91
2022-10-07T14:28:36.301Z,100713.44
2022-10-07T14:34:06.183Z,100703.66
2022-10-07T14:39:23.507Z,100706.00
2022-10-07T14:44:26.223Z,100695.22
2022-10-07T14:49:28.329Z,100690.53
2022-10-07T14:54:29.221Z,100691.81
2022-10-07T14:59:31.377Z,100681.53
2022-10-07T15:04:32.616Z,100673.28
2022-10-07T15:09:33.521Z,100663.94
2022-10-07T15:14:35.668Z,100655.00
2022-10-07T15:19:36.801Z,100648.13
2022-10-07T15:24:37.647Z,100640.84
2022-10-07T15:29:40.049Z,100636.97
2022-10-07T15:34:40.826Z,100629.34
2022-10-07T15:39:41.617Z,100625.38
2022-10-07T15:44:44.566Z,100615.28
2022-10-07T15:49:45.553Z,100617.78
2022-10-07T15:54:46.680Z,100619.50
2022-10-07T15:59:48.916Z,100623.31
2022-10-07T16:04:49.730Z,100617.53
2022-10-07T16:09:50.573Z,100623.44
2022-10-07T16:14:53.047Z,100621.94
2022-10-07T16:19:53.883Z,100623.81
2022-10-07T16:24:55.600Z,100630.31
2022-10-07T16:30:15.404Z,100629.97
2022-10-07T16:35:16.368Z,100626.84
2022-10-07T16:40:17.172Z,100618.28
2022-10-07T16:45:19.383Z,100613.19
2022-10-07T16:50:20.989Z,100618.91
2022-10-07T16:55:21.848Z,100611.59
2022-10-07T17:00:24.124Z,100623.09
2022-10-07T17:05:24.904Z,100617.25
2022-10-07T17:10:25.871Z,100622.59
2022-10-07T17:15:28.152Z,100620.16
2022-10-07T17:20:29.142Z,100620.34
2022-10-07T17:25:29.946Z,100616.22
2022-10-07T17:30:33.517Z,100615.13
2022-10-07T17:35:34.740Z,100621.94
2022-10-07T17:40:37.473Z,100615.91
2022-10-07T17:45:41.835Z,100618.47
2022-10-07T17:50:42.846Z,100612.56
2022-10-07T17:55:51.607Z,100606.94
2022-10-07T18:00:53.830Z,100613.50
2022-10-07T18:05:55.035Z,100614.03
2022-10-07T18:10:55.934Z,100611.00
2022-10-07T18:16:02.419Z,100606.16
2022-10-07T18:21:05.437Z,100596.03
2022-10-07T18:26:07.118Z,100599.78
2022-10-07T18:31:12.012Z,100595.78
2022-10-07T18:36:15.178Z,100580.56
2022-10-07T18:41:18.262Z,100575.63
2022-10-07T18:46:20.564Z,100568.06
2022-10-07T18:51:21.353Z,100570.88
2022-10-07T18:56:24.265Z,100562.59
2022-10-07T19:01:30.306Z,100557.56
2022-10-07T19:06:33.376Z,100563.00
2022-10-07T19:11:34.683Z,100558.00
2022-10-07T19:16:38.636Z,100555.47
2022-10-07T19:21:40.422Z,100558.25
2022-10-07T19:26:43.365Z,100558.44
2022-10-07T19:31:48.732Z,100567.16
2022-10-07T19:36:50.919Z,100567.34
2022-10-07T19:41:51.733Z,100567.41
2022-10-07T19:46:54.349Z,100567.53
2022-10-07T19:51:55.183Z,100565.03
2022-10-07T19:56:56.158Z,100553.94
2022-10-07T20:02:01.063Z,100552.22
2022-10-07T20:07:02.230Z,100555.72
2022-10-07T20:12:04.654Z,100552.25
2022-10-07T20:17:07.490Z,100548.00
2022-10-07T20:22:08.551Z,100550.75
2022-10-07T20:27:09.421Z,100540.59
2022-10-07T20:32:11.686Z,100536.41
2022-10-07T20:37:12.532Z,100546.69
2022-10-07T20:42:24.329Z,100532.22
2022-10-07T20:47:29.943Z,100530.63
2022-10-07T20:52:32.876Z,100518.63
2022-10-07T20:57:37.905Z,100522.97
2022-10-07T21:02:40.134Z,100510.97
2022-10-07T21:07:41.079Z,100497.44
2022-10-07T21:12:41.868Z,100496.56
2022-10-07T21:17:45.939Z,100508.69
2022-10-07T21:22:48.577Z,100505.41
2022-10-07T21:27:49.720Z,100489.91
2022-10-07T21:32:51.828Z,100494.34
2022-10-07T21:37:52.648Z,100480.63
2022-10-07T21:42:53.455Z,100473.03
2022-10-07T21:47:55.656Z,100473.94
2022-10-07T21:52:56.572Z,100471.44
2022-10-07T21:57:57.572Z,100480.91
2022-10-07T22:02:59.779Z,100471.56
2022-10-07T22:08:17.917Z,100464.75
2022-10-07T22:13:18.678Z,100459.63
2022-10-07T22:18:20.842Z,100456.13
2022-10-07T22:23:21.626Z,100439.91
2022-10-07T22:28:22.513Z,100440.84
2022-10-07T22:33:24.694Z,100434.91
2022-10-07T22:38:25.474Z,100432.41
2022-10-07T22:43:26.276Z,100419.63
2022-10-07T22:48:31.000Z,100427.38
2022-10-07T22:53:31.758Z,100424.00
2022-10-07T22:58:32.577Z,100412.09
2022-10-07T23:03:36.186Z,100412.03
2022-10-07T23:08:37.381Z,100401.84
2022-10-07T23:13:38.257Z,100398.50
2022-10-07T23:18:43.186Z,100398.56
2022-10-07T23:23:46.924Z,100405.50
2022-10-07T23:28:49.350Z,100393.50
2022-10-07T23:33:52.795Z,100381.63
2022-10-07T23:38:54.208Z,100392.84
2022-10-07T23:43:57.212Z,100388.53
2022-10-07T23:48:59.956Z,100385.97
2022-10-07T23:54:02.069Z,100383.47
2022-10-07T23:59:03.923Z,100379.28
